Elizabeth, NJ

1:50 PM EDT on October 25, 2014 (GMT -0400)
Kean University Science Building Rooftop | Change Station
CLOSE
Current Station
Personal Weather Station
Location: Union, NJ
Elevation: 40 ft
Nearby Weather Stations

Elev 40 ft 40.68 °N, 74.23 °W | Updated 6 minutes ago

Scattered Clouds
Scattered Clouds
65.8 °F
Feels Like 65.8 °F
N
5.0
Wind Variable Wind from WSW
Gusts 13.0 mph

Today
High -- | Low -- °F
--% Chance of Precip.
Yesterday
High -- | Low -- °F
Precip. -- in
7:18 AM 6:02 PM
Waxing Crescent, 4% visible
Pressure 29.78 in
Visibility 10.0 miles
Clouds Few 5000 ft
Scattered Clouds 25000 ft
Dew Point 36 °F
Humidity 33%
Rainfall -999.00 in
Snow Depth Not available.
UV 4 out of 12
Pollen 1.40 out of 12
Air Quality Not available.
Flu Activity Sporadic
METAR KEWR 251651Z 25010KT 10SM FEW050 SCT250 19/05 A2978 RMK AO2 SLP083 T01890050

More Conditions Fewer Conditions

Pressure 29.78 in
Visibility 10.0 miles
Clouds Few 5000 ft
Scattered Clouds 25000 ft
Dew Point 36 °F
Humidity 33%
Rainfall -999.00 in
Snow Depth Not available.
UV 4 out of 12
Pollen 1.40 out of 12
Air Quality Not available.
Flu Activity Sporadic
METAR KEWR 251651Z 25010KT 10SM FEW050 SCT250 19/05 A2978 RMK AO2 SLP083 T01890050

More Conditions Fewer Conditions

10-Day Weather Forecast

Almanac

Astronomy

Oct. 25, 2014 Rise Set
Actual Time 7:18 AM EDT 6:02 PM EDT
Civil Twilight 6:50 AM EDT 6:30 PM EDT
Nautical Twilight 6:18 AM EDT 7:02 PM EDT
Astronomical Twilight 5:47 AM EDT 7:33 PM EDT
Moon 8:55 AM EDT 7:22 PM EDT
Length of Visible Light 11h 39m
Length of Day
10h 43m
Tomorrow will be 2m 29s shorter.
Waxing Crescent, 4% of the Moon is Illuminated
Today
Waxing Crescent
Oct 30
First Quarter
Nov 6
Full
Nov 14
Last Quarter
Nov 22
New

Today's Extremes

State Highs State Lows

Community

WunderPhotos

Upload Photos

1,764,919 photos uploaded!

Nearby

Snow Depth

Station Depth Elevation
No new snow has been reported.

Earthquake Activity

City Distance Mag. Time & Date
No recent earthquake activity has been reported nearby.
Minimum magnitude displayed is 2.5.

Coastal Water Temperatures

Place Temperature
Sandy Hook, NJ 57.0 °F
The Battery, NY 61.0 °F
Bergen Point West Reach, NJ 60.1 °F

Nearby Weather Stations